Terminal Aerodrome Forecast
Issued by NWS

Home | Current Version | Previous Version | Text Only | Print | Product List | Glossary On
Versions: 1 2 3 4 5 6 7 8 9 10 11 12 13 14 15 16 17 18
000
FTUS43 KUNR 062320
TAFGCC
TAF
KGCC 062320Z 0700/0724 VRB03KT P6SM BKN050
     FM070700 17017KT P6SM BKN100
     FM071900 19010KT P6SM BKN050 PROB30 0720/0724 P6SM TSRA
      BKN050CB=

USA.gov is the U.S. government's official web portal to all federal, state and local government web resources and services.